Time;durP1;ratioP1;P1;durP2;ratioP2;P2;SDS_P1;SDS_P2;PMS_P1;PMS_P2;Temp;Humidity;BMP_temperature;BMP_pressure;BME280_temperature;BME280_humidity;BME280_pressure;Samples;Min_cycle;Max_cycle;Signal;HPM_P1;HPM_P2
2021/09/29 00:00:35;;;;;;;7.00;2.55;;;13.90;99.90;;;;;;5001876;28;39310;-78
2021/09/29 00:03:01;;;;;;;8.25;3.13;;;13.90;99.90;;;;;;4996459;28;36444;-76
2021/09/29 00:05:27;;;;;;;8.23;2.70;;;13.80;99.90;;;;;;4996400;28;36895;-78
2021/09/29 00:07:53;;;;;;;8.75;3.22;;;13.80;99.90;;;;;;4998629;28;39566;-79
2021/09/29 00:10:20;;;;;;;5.25;2.13;;;13.80;99.90;;;;;;4997779;28;39306;-79
2021/09/29 00:12:47;;;;;;;8.13;2.90;;;13.70;99.90;;;;;;5000680;28;39227;-79
2021/09/29 00:15:14;;;;;;;9.82;3.20;;;13.70;99.90;;;;;;4990702;28;37886;-78
2021/09/29 00:17:45;;;;;;;6.50;2.78;;;13.70;99.90;;;;;;5003746;28;38846;-79
2021/09/29 00:20:13;;;;;;;5.68;2.85;;;13.60;99.90;;;;;;5000475;28;37645;-79
2021/09/29 00:22:40;;;;;;;6.97;2.92;;;13.60;99.90;;;;;;4996665;28;37543;-78
2021/09/29 00:25:08;;;;;;;6.45;3.00;;;13.60;99.90;;;;;;4997890;28;35202;-78
2021/09/29 00:27:36;;;;;;;7.15;2.78;;;13.60;99.90;;;;;;4997178;28;37974;-78
2021/09/29 00:30:08;;;;;;;6.65;3.42;;;13.60;99.90;;;;;;4999464;28;39173;-79
2021/09/29 00:32:39;;;;;;;6.78;3.10;;;13.50;99.90;;;;;;4989970;28;48931;-79
2021/09/29 00:35:06;;;;;;;7.03;3.00;;;13.50;99.90;;;;;;4994193;28;37250;-79
2021/09/29 00:37:32;;;;;;;11.13;3.70;;;13.50;99.90;;;;;;4994729;28;37196;-79
2021/09/29 00:39:58;;;;;;;8.98;3.70;;;13.50;99.90;;;;;;4998720;28;39715;-79
2021/09/29 00:42:24;;;;;;;8.35;3.40;;;13.40;99.90;;;;;;5006034;28;39192;-79
2021/09/29 00:44:51;;;;;;;7.10;3.75;;;13.40;99.90;;;;;;4990940;28;37196;-80
2021/09/29 00:47:18;;;;;;;10.50;3.47;;;13.40;99.90;;;;;;4997706;28;37777;-79
2021/09/29 00:49:45;;;;;;;9.15;3.72;;;13.40;99.90;;;;;;4995883;28;38449;-79
2021/09/29 00:52:11;;;;;;;10.93;3.35;;;13.40;99.90;;;;;;4992599;28;39236;-79
2021/09/29 00:54:39;;;;;;;6.10;3.45;;;13.40;99.90;;;;;;4998973;28;37878;-79
2021/09/29 00:57:06;;;;;;;8.48;3.88;;;13.40;99.90;;;;;;4997235;28;40834;-79
2021/09/29 00:59:32;;;;;;;5.50;3.50;;;13.50;99.90;;;;;;4997836;28;39242;-79
2021/09/29 01:01:58;;;;;;;6.20;3.70;;;13.50;99.90;;;;;;4997955;28;38155;-81
2021/09/29 01:04:26;;;;;;;8.02;4.18;;;13.50;99.90;;;;;;5001147;28;37839;-79
2021/09/29 01:07:22;;;;;;;11.00;4.15;;;13.50;99.90;;;;;;4996219;28;39558;-79
2021/09/29 01:10:25;;;;;;;7.00;3.90;;;13.50;99.90;;;;;;4997648;28;48772;-78
2021/09/29 01:13:08;;;;;;;10.25;4.38;;;13.50;99.90;;;;;;4989954;28;48749;-79
2021/09/29 01:16:02;;;;;;;8.15;3.67;;;13.60;99.90;;;;;;5005223;28;47391;-79
2021/09/29 01:18:32;;;;;;;10.18;3.92;;;13.60;99.90;;;;;;4990303;28;47945;-79
2021/09/29 01:21:11;;;;;;;9.15;4.32;;;13.60;99.90;;;;;;4997127;28;38186;-79
2021/09/29 01:24:01;;;;;;;8.60;4.00;;;13.70;99.90;;;;;;4996314;28;48592;-79
2021/09/29 01:26:32;;;;;;;10.68;4.10;;;13.70;99.90;;;;;;4995078;28;49991;-79
2021/09/29 01:29:03;;;;;;;9.13;3.97;;;13.70;99.90;;;;;;5008324;28;39593;-79
2021/09/29 01:31:30;;;;;;;8.05;3.88;;;13.70;99.90;;;;;;4975594;28;47814;-79
2021/09/29 01:33:57;;;;;;;11.57;4.10;;;13.60;99.90;;;;;;4976237;28;39259;-79
2021/09/29 01:36:23;;;;;;;10.55;4.20;;;13.70;99.90;;;;;;4977934;28;36463;-79
2021/09/29 01:38:57;;;;;;;5.28;3.60;;;13.70;99.90;;;;;;4974066;28;38970;-79
2021/09/29 01:41:25;;;;;;;9.00;3.88;;;13.60;99.90;;;;;;4970187;28;39530;-77
2021/09/29 01:43:52;;;;;;;9.93;4.07;;;13.60;99.90;;;;;;4977062;28;39054;-78
2021/09/29 01:46:19;;;;;;;10.30;4.28;;;13.60;99.90;;;;;;4975461;28;38967;-79
2021/09/29 01:49:22;;;;;;;8.00;3.78;;;13.70;99.90;;;;;;4975860;28;39434;-79
2021/09/29 01:51:50;;;;;;;9.18;4.05;;;13.70;99.90;;;;;;4982498;28;47647;-78
2021/09/29 01:54:19;;;;;;;14.68;4.45;;;13.70;99.90;;;;;;4992674;28;39329;-79
2021/09/29 01:56:46;;;;;;;7.00;3.67;;;13.70;99.90;;;;;;4983529;28;37068;-78
2021/09/29 01:59:12;;;;;;;7.95;3.35;;;13.70;99.90;;;;;;5009332;28;39523;-78
2021/09/29 02:01:41;;;;;;;7.65;3.38;;;13.70;99.90;;;;;;4996193;28;37050;-78
2021/09/29 02:04:11;;;;;;;8.63;3.47;;;13.80;99.90;;;;;;4995907;28;39270;-79
2021/09/29 02:06:49;;;;;;;6.47;3.63;;;13.80;99.90;;;;;;4996034;28;35815;-78
2021/09/29 02:09:15;;;;;;;13.57;3.83;;;13.80;99.90;;;;;;4994443;28;39620;-79
2021/09/29 02:11:42;;;;;;;8.00;3.35;;;13.80;99.90;;;;;;4995640;28;38507;-79
2021/09/29 02:14:08;;;;;;;9.60;3.65;;;13.90;99.90;;;;;;4997748;28;38278;-78
2021/09/29 02:16:35;;;;;;;5.22;3.08;;;13.80;99.90;;;;;;4994439;28;35594;-79
2021/09/29 02:19:01;;;;;;;7.45;3.72;;;13.80;99.90;;;;;;4996520;28;39563;-79
2021/09/29 02:21:27;;;;;;;7.13;3.70;;;13.80;99.90;;;;;;4993464;28;47273;-79
2021/09/29 02:23:53;;;;;;;8.50;3.35;;;13.80;99.90;;;;;;5011381;28;38025;-78
2021/09/29 02:26:19;;;;;;;9.27;3.75;;;13.80;99.90;;;;;;4996173;28;36882;-79
2021/09/29 02:28:45;;;;;;;7.75;3.40;;;13.80;99.90;;;;;;4998960;28;39879;-79
2021/09/29 02:31:11;;;;;;;6.95;3.25;;;13.80;99.90;;;;;;4991365;28;39248;-79
2021/09/29 02:33:37;;;;;;;10.75;3.65;;;13.80;99.90;;;;;;4993343;28;39444;-79
2021/09/29 02:36:04;;;;;;;12.20;4.40;;;13.80;99.90;;;;;;4993124;28;37401;-79
2021/09/29 02:38:30;;;;;;;6.63;3.55;;;13.80;99.90;;;;;;4996820;28;39098;-79
2021/09/29 02:40:56;;;;;;;12.48;4.60;;;13.80;99.90;;;;;;4993303;28;39548;-79
2021/09/29 02:43:22;;;;;;;11.15;3.70;;;13.90;99.90;;;;;;4996352;28;39263;-78
2021/09/29 02:45:48;;;;;;;9.07;4.45;;;13.90;99.90;;;;;;4994733;28;36274;-78
2021/09/29 02:48:15;;;;;;;8.88;3.50;;;13.70;99.90;;;;;;4993259;28;39485;-78
2021/09/29 02:50:41;;;;;;;10.93;4.10;;;13.50;99.90;;;;;;4991366;28;40224;-78
2021/09/29 02:53:07;;;;;;;7.00;3.65;;;13.30;99.90;;;;;;4994832;28;38608;-80
2021/09/29 02:55:33;;;;;;;9.10;4.07;;;13.30;99.90;;;;;;4994228;28;37410;-80
2021/09/29 02:57:59;;;;;;;10.00;4.55;;;13.20;99.90;;;;;;4993630;28;38597;-79
2021/09/29 03:00:25;;;;;;;10.57;4.43;;;13.20;99.90;;;;;;4992604;28;38109;-80
2021/09/29 03:02:51;;;;;;;10.32;4.32;;;13.20;99.90;;;;;;4995301;28;38599;-77
2021/09/29 03:05:17;;;;;;;7.93;3.80;;;13.20;99.90;;;;;;4992580;28;38216;-79
2021/09/29 03:07:43;;;;;;;7.53;4.03;;;13.20;99.90;;;;;;4992354;28;37409;-80
2021/09/29 03:10:09;;;;;;;14.50;4.68;;;13.20;99.90;;;;;;4996489;28;38795;-79
2021/09/29 03:12:36;;;;;;;7.22;4.15;;;13.20;99.90;;;;;;4996796;28;38455;-77
2021/09/29 03:15:02;;;;;;;9.27;4.10;;;13.30;99.90;;;;;;4999798;28;36979;-79
2021/09/29 03:17:28;;;;;;;14.32;4.00;;;13.30;99.90;;;;;;5002485;28;39568;-78
2021/09/29 03:19:54;;;;;;;13.50;3.90;;;13.20;99.90;;;;;;5002983;28;39450;-79
2021/09/29 03:22:21;;;;;;;12.30;4.15;;;13.30;99.90;;;;;;4997912;28;40554;-79
2021/09/29 03:24:47;;;;;;;11.57;4.35;;;13.30;99.90;;;;;;4999299;28;39055;-77
2021/09/29 03:27:13;;;;;;;13.40;4.50;;;13.20;99.90;;;;;;4994568;28;39673;-79
2021/09/29 03:29:39;;;;;;;14.45;4.13;;;13.20;99.90;;;;;;4995919;28;39829;-79
2021/09/29 03:32:06;;;;;;;13.82;4.15;;;13.20;99.90;;;;;;5012756;28;39384;-79
2021/09/29 03:34:32;;;;;;;12.57;3.38;;;13.20;99.90;;;;;;4996798;28;38301;-79
2021/09/29 03:36:58;;;;;;;14.90;3.97;;;13.10;99.90;;;;;;4997454;28;39130;-79
2021/09/29 03:39:24;;;;;;;11.55;3.30;;;13.10;99.90;;;;;;4999602;28;38454;-79
2021/09/29 03:41:50;;;;;;;9.77;2.83;;;13.10;99.90;;;;;;5011264;28;40563;-79
2021/09/29 03:44:16;;;;;;;10.88;3.15;;;13.00;99.90;;;;;;4998286;28;37972;-78
2021/09/29 03:46:42;;;;;;;12.32;2.88;;;13.00;99.90;;;;;;5011593;28;40473;-79
2021/09/29 03:49:09;;;;;;;9.40;2.35;;;13.00;99.90;;;;;;4995754;28;40452;-79
2021/09/29 03:51:35;;;;;;;12.18;2.80;;;13.00;99.90;;;;;;4989707;28;38883;-79
2021/09/29 03:54:01;;;;;;;10.95;2.70;;;13.00;99.90;;;;;;4996854;28;37042;-79
2021/09/29 03:56:27;;;;;;;8.18;2.78;;;13.00;99.90;;;;;;4991136;28;47083;-79
2021/09/29 03:58:53;;;;;;;8.80;2.40;;;13.00;99.90;;;;;;4995565;28;38929;-79
2021/09/29 04:01:19;;;;;;;5.07;2.30;;;13.00;99.90;;;;;;4998155;28;40381;-79
2021/09/29 04:03:46;;;;;;;9.43;2.60;;;13.00;99.90;;;;;;5010934;28;37708;-79
2021/09/29 04:06:12;;;;;;;7.88;2.28;;;13.00;99.90;;;;;;4995568;28;37599;-79
2021/09/29 04:08:38;;;;;;;12.32;2.50;;;13.00;99.90;;;;;;5011841;28;40265;-79
2021/09/29 04:11:07;;;;;;;9.55;2.63;;;13.00;99.90;;;;;;4995948;28;38194;-79
2021/09/29 04:13:33;;;;;;;7.22;2.15;;;13.00;99.90;;;;;;4995968;28;38594;-79
2021/09/29 04:16:00;;;;;;;7.07;1.60;;;13.00;99.90;;;;;;5006651;28;38598;-79
2021/09/29 04:18:26;;;;;;;10.45;2.25;;;13.00;99.90;;;;;;4996829;28;39166;-79
2021/09/29 04:20:52;;;;;;;8.68;2.25;;;13.00;99.90;;;;;;4998745;28;39307;-79
2021/09/29 04:23:18;;;;;;;15.20;3.28;;;13.00;99.90;;;;;;4993564;28;38875;-79
2021/09/29 04:25:48;;;;;;;10.43;2.22;;;13.00;99.90;;;;;;4996015;28;38943;-79
2021/09/29 04:28:15;;;;;;;10.35;2.00;;;13.00;99.90;;;;;;4998872;28;38822;-79
2021/09/29 04:30:41;;;;;;;12.00;2.47;;;13.10;99.90;;;;;;5005978;28;38231;-79
2021/09/29 04:33:07;;;;;;;8.00;2.65;;;13.10;99.90;;;;;;4978014;28;37137;-79
2021/09/29 04:35:33;;;;;;;5.78;2.10;;;13.10;99.90;;;;;;4996336;28;39268;-79
2021/09/29 04:37:59;;;;;;;6.53;2.20;;;13.00;99.90;;;;;;4997546;28;38742;-79
2021/09/29 04:40:25;;;;;;;9.80;1.92;;;13.00;99.90;;;;;;5005802;28;38610;-79
2021/09/29 04:42:52;;;;;;;10.15;2.35;;;13.00;99.90;;;;;;4996193;28;37740;-79
2021/09/29 04:45:18;;;;;;;10.93;3.03;;;13.00;99.90;;;;;;4996007;28;39328;-79
2021/09/29 04:47:44;;;;;;;6.35;1.80;;;13.00;99.90;;;;;;4996137;28;40929;-79
2021/09/29 04:50:10;;;;;;;7.07;2.15;;;13.10;99.90;;;;;;4994989;28;37239;-78
2021/09/29 04:52:36;;;;;;;7.47;2.33;;;13.00;99.90;;;;;;4992648;28;37843;-79
2021/09/29 04:55:03;;;;;;;10.05;2.17;;;13.00;99.90;;;;;;4998014;28;40118;-79
2021/09/29 04:57:31;;;;;;;10.32;1.67;;;12.90;99.90;;;;;;4992166;28;46885;-79
2021/09/29 04:59:58;;;;;;;7.40;1.83;;;13.00;99.90;;;;;;4995573;28;39110;-79
2021/09/29 05:02:25;;;;;;;11.48;2.72;;;13.00;99.90;;;;;;4992520;28;38053;-79
2021/09/29 05:04:51;;;;;;;6.47;1.95;;;13.00;99.90;;;;;;4996323;28;39567;-79
2021/09/29 05:07:19;;;;;;;10.90;2.42;;;13.10;99.90;;;;;;5003792;28;40570;-79
2021/09/29 05:09:46;;;;;;;7.90;2.22;;;13.10;99.90;;;;;;4996433;28;38771;-79
2021/09/29 05:12:29;;;;;;;10.40;1.98;;;13.00;99.90;;;;;;4997399;28;37925;-79
2021/09/29 05:14:56;;;;;;;10.73;2.28;;;13.00;99.90;;;;;;4991910;28;39115;-79
2021/09/29 05:17:23;;;;;;;7.18;2.15;;;13.10;99.90;;;;;;4993923;28;39290;-79
2021/09/29 05:19:49;;;;;;;11.18;2.17;;;13.00;99.90;;;;;;5012228;28;38805;-79
2021/09/29 05:22:16;;;;;;;6.60;2.00;;;13.00;99.90;;;;;;4989090;28;37635;-79
2021/09/29 05:24:42;;;;;;;7.90;2.30;;;13.00;99.90;;;;;;5008368;28;39149;-78
2021/09/29 05:27:09;;;;;;;11.98;2.30;;;13.00;99.90;;;;;;4993146;28;42275;-79
2021/09/29 05:29:38;;;;;;;8.63;2.20;;;13.00;99.90;;;;;;5004207;28;39373;-79
2021/09/29 05:32:04;;;;;;;6.18;2.10;;;13.00;99.90;;;;;;4998543;28;37967;-79
2021/09/29 05:34:30;;;;;;;7.45;2.47;;;13.00;99.90;;;;;;5003208;28;40319;-78
2021/09/29 05:36:57;;;;;;;7.43;2.42;;;13.10;99.90;;;;;;4993129;28;38971;-78
2021/09/29 05:39:23;;;;;;;10.20;2.20;;;13.10;99.90;;;;;;4998300;28;37384;-75
2021/09/29 05:41:49;;;;;;;8.23;2.28;;;13.10;99.90;;;;;;5000608;28;37773;-77
2021/09/29 05:44:15;;;;;;;6.40;1.85;;;13.10;99.90;;;;;;4992553;28;37750;-77
2021/09/29 05:46:42;;;;;;;5.45;2.05;;;13.10;99.90;;;;;;4998065;28;37478;-76
2021/09/29 05:49:08;;;;;;;7.80;2.47;;;13.10;99.90;;;;;;4999959;28;38259;-77
2021/09/29 05:51:34;;;;;;;4.95;1.88;;;13.10;99.90;;;;;;4993579;28;37981;-76
2021/09/29 05:54:00;;;;;;;3.63;1.30;;;13.10;99.90;;;;;;5000509;28;39333;-81
2021/09/29 05:56:26;;;;;;;5.32;1.58;;;13.10;99.90;;;;;;4997855;28;46680;-81
2021/09/29 05:58:52;;;;;;;6.25;1.80;;;13.10;99.90;;;;;;5001071;28;39375;-80
2021/09/29 06:01:18;;;;;;;5.10;1.50;;;13.10;99.90;;;;;;4995468;28;37875;-80
2021/09/29 06:03:44;;;;;;;8.70;2.17;;;13.10;99.90;;;;;;5002596;28;38976;-80
2021/09/29 06:06:10;;;;;;;6.75;1.35;;;13.10;99.90;;;;;;5005332;28;39467;-80
2021/09/29 06:08:37;;;;;;;7.35;2.20;;;13.10;99.90;;;;;;5022651;28;39034;-81
2021/09/29 06:11:03;;;;;;;5.05;1.55;;;13.10;99.90;;;;;;5022932;28;38839;-80
2021/09/29 06:13:29;;;;;;;4.18;1.40;;;13.00;99.90;;;;;;5000576;28;38886;-80
2021/09/29 06:15:55;;;;;;;4.95;1.35;;;13.00;99.90;;;;;;4990615;28;39781;-80
2021/09/29 06:18:21;;;;;;;2.63;1.00;;;13.00;99.90;;;;;;5003056;28;39467;-80
2021/09/29 06:20:50;;;;;;;2.10;0.70;;;13.00;99.90;;;;;;5020740;28;37372;-80
2021/09/29 06:23:18;;;;;;;4.53;0.85;;;13.00;99.90;;;;;;4994460;28;38827;-80
2021/09/29 06:25:45;;;;;;;2.10;0.63;;;13.00;99.90;;;;;;5014390;28;39127;-81
2021/09/29 06:28:12;;;;;;;2.13;0.70;;;13.00;99.90;;;;;;5019213;28;39217;-81
2021/09/29 06:30:38;;;;;;;4.82;0.88;;;12.90;99.90;;;;;;5004511;28;34611;-78
2021/09/29 06:33:04;;;;;;;3.70;0.75;;;12.90;99.90;;;;;;5001705;28;39169;-78
2021/09/29 06:35:30;;;;;;;3.10;0.60;;;12.90;99.90;;;;;;4997421;28;39568;-78
2021/09/29 06:37:58;;;;;;;2.22;0.88;;;12.90;99.90;;;;;;4999122;28;39294;-80
2021/09/29 06:40:25;;;;;;;1.23;0.38;;;12.80;99.90;;;;;;5003308;28;36911;-78
2021/09/29 06:42:51;;;;;;;5.72;0.68;;;12.80;99.90;;;;;;5007904;28;38871;-79
2021/09/29 06:45:17;;;;;;;1.33;0.40;;;12.80;99.90;;;;;;5003623;28;40288;-78
2021/09/29 06:47:45;;;;;;;4.35;0.60;;;12.70;99.90;;;;;;5005553;28;38232;-78
2021/09/29 06:50:13;;;;;;;1.30;0.57;;;12.70;99.90;;;;;;5007469;28;38022;-79
2021/09/29 06:52:40;;;;;;;3.45;1.20;;;12.70;99.90;;;;;;5008569;28;38884;-80
2021/09/29 06:55:07;;;;;;;5.10;0.82;;;12.70;99.90;;;;;;5013287;28;39043;-78
2021/09/29 06:57:34;;;;;;;1.23;0.63;;;12.70;99.90;;;;;;5001744;28;37993;-78
2021/09/29 07:00:00;;;;;;;3.47;1.00;;;12.70;99.90;;;;;;5010081;28;38031;-77
2021/09/29 07:02:26;;;;;;;3.28;1.10;;;12.60;99.90;;;;;;5009070;28;38491;-78
2021/09/29 07:04:52;;;;;;;3.15;1.02;;;12.70;99.90;;;;;;5007232;28;40530;-78
2021/09/29 07:07:19;;;;;;;5.55;1.48;;;12.60;99.90;;;;;;5002985;28;39777;-78
2021/09/29 07:09:45;;;;;;;2.05;1.10;;;12.60;99.90;;;;;;5001448;28;37877;-78
2021/09/29 07:12:12;;;;;;;8.57;1.48;;;12.60;99.90;;;;;;5009256;28;39223;-78
2021/09/29 07:14:38;;;;;;;4.60;1.45;;;12.60;99.90;;;;;;5003021;28;37894;-78
2021/09/29 07:17:04;;;;;;;5.45;1.95;;;12.60;99.90;;;;;;5008768;28;38994;-77
2021/09/29 07:19:30;;;;;;;6.28;1.40;;;12.60;99.90;;;;;;5014692;28;38103;-79
2021/09/29 07:21:56;;;;;;;3.65;1.20;;;12.50;99.90;;;;;;5012199;28;40700;-79
2021/09/29 07:24:22;;;;;;;2.85;1.20;;;12.40;99.90;;;;;;5013662;28;40065;-78
2021/09/29 07:26:49;;;;;;;4.80;0.98;;;12.30;99.90;;;;;;5008229;28;39480;-80
2021/09/29 07:29:15;;;;;;;6.38;0.88;;;12.30;99.90;;;;;;5006547;28;38251;-79
2021/09/29 07:31:41;;;;;;;2.28;0.77;;;12.20;99.90;;;;;;5015152;28;39606;-81
2021/09/29 07:34:07;;;;;;;2.88;0.80;;;12.10;99.90;;;;;;5005401;28;39052;-79
2021/09/29 07:36:40;;;;;;;2.95;1.05;;;12.10;99.90;;;;;;5019075;28;39165;-81
2021/09/29 07:39:06;;;;;;;;;;;12.00;99.90;;;;;;5012536;28;38132;-81
2021/09/29 07:41:32;;;;;;;3.30;0.82;;;12.00;99.90;;;;;;5014930;28;38054;-81
2021/09/29 07:43:58;;;;;;;3.65;0.85;;;12.00;99.90;;;;;;5014139;28;39733;-81
2021/09/29 07:46:24;;;;;;;0.88;0.55;;;12.00;99.90;;;;;;5015376;28;38983;-80
2021/09/29 07:48:50;;;;;;;1.92;1.02;;;12.00;99.90;;;;;;5019049;28;38277;-80
2021/09/29 07:51:17;;;;;;;2.53;1.08;;;12.00;99.90;;;;;;5016416;28;38881;-81
2021/09/29 07:53:43;;;;;;;2.85;0.93;;;12.00;99.90;;;;;;4995585;28;38564;-80
2021/09/29 07:56:10;;;;;;;3.53;0.75;;;12.00;99.90;;;;;;5010703;28;38386;-81
2021/09/29 07:58:36;;;;;;;2.97;0.70;;;11.90;99.90;;;;;;5015190;28;38167;-81
2021/09/29 08:01:02;;;;;;;3.05;0.77;;;12.00;99.90;;;;;;5018607;28;40510;-80
2021/09/29 08:03:28;;;;;;;3.38;0.95;;;12.00;99.90;;;;;;5007567;28;39436;-81
2021/09/29 08:05:59;;;;;;;3.25;0.88;;;12.00;99.90;;;;;;5009041;28;38245;-80
2021/09/29 08:08:25;;;;;;;1.55;0.90;;;12.00;99.90;;;;;;5004044;28;38793;-80
2021/09/29 08:10:51;;;;;;;4.13;0.82;;;12.00;99.90;;;;;;5020649;28;40182;-81
2021/09/29 08:13:17;;;;;;;3.05;0.85;;;12.10;99.90;;;;;;5003030;28;38309;-81
2021/09/29 08:15:43;;;;;;;2.90;0.60;;;12.10;99.90;;;;;;4999464;28;39022;-80
2021/09/29 08:18:09;;;;;;;1.17;0.80;;;12.10;99.90;;;;;;5014429;28;36008;-80
2021/09/29 08:20:37;;;;;;;3.60;0.90;;;12.10;99.90;;;;;;5019083;28;37470;-78
2021/09/29 08:33:32;;;;;;;2.15;0.90;;;12.10;99.90;;;;;;5005676;28;39626;-81
2021/09/29 08:36:04;;;;;;;8.32;1.17;;;12.10;99.90;;;;;;5006266;28;38133;-80
2021/09/29 08:49:20;;;;;;;5.25;1.33;;;12.10;99.90;;;;;;4991659;28;38503;-80
2021/09/29 09:16:33;;;;;;;7.45;1.90;;;11.30;99.90;;;;;;4991041;28;39089;-80
2021/09/29 09:19:11;;;;;;;6.60;2.17;;;11.50;99.90;;;;;;5007117;28;40358;-80
2021/09/29 09:21:49;;;;;;;6.18;1.67;;;11.70;99.90;;;;;;4990273;28;36889;-79
2021/09/29 09:24:17;;;;;;;6.15;1.98;;;11.70;99.90;;;;;;5001074;28;38403;-80
2021/09/29 09:26:55;;;;;;;4.70;1.33;;;11.70;99.90;;;;;;5000114;28;39971;-80
2021/09/29 09:29:21;;;;;;;3.38;1.40;;;11.80;99.90;;;;;;5005350;28;39117;-80
2021/09/29 09:31:47;;;;;;;7.00;2.20;;;11.90;99.90;;;;;;5004609;28;35828;-80
2021/09/29 09:34:13;;;;;;;4.35;1.80;;;12.00;99.90;;;;;;4998506;28;39951;-79
2021/09/29 09:36:44;;;;;;;7.25;2.15;;;12.10;99.90;;;;;;4991348;28;40416;-80
2021/09/29 09:39:22;;;;;;;4.72;2.05;;;12.20;99.90;;;;;;4994977;28;37313;-80
2021/09/29 09:41:51;;;;;;;10.40;2.30;;;12.30;99.90;;;;;;4987203;28;37315;-80
2021/09/29 09:44:26;;;;;;;7.53;1.85;;;12.30;99.90;;;;;;4992791;28;39303;-78
2021/09/29 09:47:12;;;;;;;5.78;1.85;;;12.40;99.90;;;;;;4979176;28;39477;-78
2021/09/29 09:49:56;;;;;;;4.95;1.30;;;12.40;99.90;;;;;;4980831;28;39176;-79
2021/09/29 09:52:42;;;;;;;8.50;1.38;;;12.40;99.90;;;;;;4979366;28;36764;-80
2021/09/29 09:55:12;;;;;;;5.07;1.13;;;12.40;99.90;;;;;;4982106;28;39784;-80
2021/09/29 09:57:40;;;;;;;9.85;1.90;;;12.50;99.90;;;;;;4987660;28;39056;-81
2021/09/29 10:00:09;;;;;;;4.10;1.25;;;12.60;99.90;;;;;;4985659;28;39275;-80
2021/09/29 10:02:46;;;;;;;4.00;1.17;;;12.60;99.90;;;;;;4984080;28;48899;-80
2021/09/29 10:05:18;;;;;;;3.60;1.45;;;12.80;99.90;;;;;;4984556;28;39099;-80
2021/09/29 10:07:48;;;;;;;8.00;1.42;;;12.90;99.90;;;;;;4983325;28;38893;-80
2021/09/29 10:27:18;;;;;;;7.22;1.00;;;13.70;99.90;;;;;;4984392;28;38784;-78
2021/09/29 10:29:51;;;;;;;2.85;0.88;;;13.80;99.90;;;;;;4986675;28;39397;-77
2021/09/29 10:35:12;;;;;;;5.30;1.10;;;13.90;99.90;;;;;;4984520;28;37288;-78
2021/09/29 10:37:59;;;;;;;7.18;1.30;;;13.90;99.90;;;;;;4978680;28;48710;-78
2021/09/29 11:08:32;;;;;;;3.10;0.77;;;14.70;99.90;;;;;;4985844;28;37504;-78
2021/09/29 11:11:39;;;;;;;3.83;0.98;;;15.00;99.90;;;;;;4995300;28;37878;-77
2021/09/29 11:31:04;;;;;;;4.07;0.82;;;15.50;99.90;;;;;;4984573;28;40492;-78
2021/09/29 11:33:56;;;;;;;2.72;0.60;;;15.50;99.90;;;;;;4986089;28;38288;-78
2021/09/29 11:36:39;;;;;;;5.10;0.80;;;15.80;99.90;;;;;;4984180;28;37947;-78
2021/09/29 12:09:35;;;;;;;5.70;1.45;;;15.90;99.90;;;;;;5002042;28;39452;-79
2021/09/29 12:15:06;;;;;;;4.13;0.68;;;15.10;99.90;;;;;;4993314;28;37628;-79
2021/09/29 12:17:38;;;;;;;5.97;0.70;;;14.90;99.90;;;;;;4986095;28;46896;-78
2021/09/29 12:20:14;;;;;;;;;;;14.70;99.90;;;;;;4994605;28;39606;-74
2021/09/29 12:22:53;;;;;;;4.65;0.50;;;14.80;99.90;;;;;;4993909;28;38509;-78
2021/09/29 12:25:41;;;;;;;6.05;1.25;;;15.20;99.90;;;;;;4991115;28;36906;-78
2021/09/29 12:33:58;;;;;;;7.90;1.08;;;16.10;99.90;;;;;;4992011;28;40026;-78
2021/09/29 12:36:33;;;;;;;4.25;0.57;;;16.20;99.90;;;;;;4986280;28;37122;-78
2021/09/29 12:39:01;;;;;;;5.75;0.82;;;15.90;99.90;;;;;;4993563;28;37704;-78
2021/09/29 12:41:29;;;;;;;4.43;0.82;;;16.00;99.90;;;;;;4993573;28;39783;-79
2021/09/29 12:44:03;;;;;;;2.05;0.80;;;15.90;99.90;;;;;;4990238;28;37173;-79
2021/09/29 12:46:29;;;;;;;3.25;0.73;;;15.90;99.90;;;;;;4991636;28;37415;-78
2021/09/29 12:48:56;;;;;;;3.05;1.27;;;16.10;99.90;;;;;;4992502;28;37946;-79
2021/09/29 12:51:24;;;;;;;4.07;0.55;;;16.20;99.90;;;;;;4994105;28;39314;-78
2021/09/29 12:53:55;;;;;;;5.18;0.88;;;16.20;99.90;;;;;;4985979;28;38341;-78
2021/09/29 12:56:21;;;;;;;8.85;0.73;;;16.20;99.90;;;;;;4985903;28;35974;-80
2021/09/29 12:58:47;;;;;;;2.20;0.52;;;16.20;99.90;;;;;;4990178;28;38745;-78
2021/09/29 13:01:15;;;;;;;1.33;0.40;;;16.30;99.90;;;;;;4992755;28;37894;-81
2021/09/29 13:03:42;;;;;;;2.90;0.68;;;15.90;99.90;;;;;;4974680;28;39487;-79
2021/09/29 13:06:10;;;;;;;5.30;1.80;;;15.60;99.90;;;;;;4996295;28;36848;-79
2021/09/29 13:08:36;;;;;;;6.85;1.02;;;15.30;99.90;;;;;;4999767;28;37658;-79
2021/09/29 13:11:03;;;;;;;4.80;0.63;;;15.00;99.90;;;;;;5006429;28;37692;-78
2021/09/29 13:13:35;;;;;;;4.60;0.88;;;14.70;99.90;;;;;;5005936;28;38792;-78
2021/09/29 13:16:05;;;;;;;5.10;0.73;;;14.50;99.90;;;;;;5007104;28;37525;-79
2021/09/29 13:23:53;;;;;;;5.93;1.23;;;14.60;99.90;;;;;;5005980;28;39625;-78
2021/09/29 13:37:00;;;;;;;5.70;0.73;;;14.80;99.90;;;;;;4998246;28;37824;-78
2021/09/29 13:39:26;;;;;;;5.65;0.90;;;15.20;99.90;;;;;;5017382;28;39874;-78
2021/09/29 13:41:53;;;;;;;5.15;0.90;;;15.50;99.90;;;;;;4997770;28;40849;-78
2021/09/29 13:44:23;;;;;;;6.32;0.73;;;15.70;99.90;;;;;;5005979;28;38351;-80
2021/09/29 13:46:49;;;;;;;5.13;0.82;;;15.90;99.90;;;;;;5002244;28;39255;-78
2021/09/29 13:49:15;;;;;;;5.03;0.88;;;15.70;99.90;;;;;;4997364;28;40284;-78
2021/09/29 13:51:47;;;;;;;3.63;0.85;;;15.30;99.90;;;;;;5002064;28;38968;-79
2021/09/29 13:54:19;;;;;;;3.05;0.55;;;15.00;99.90;;;;;;5005539;28;40053;-77
2021/09/29 14:29:38;;;;;;;3.38;0.63;;;13.40;99.90;;;;;;5003051;28;38025;-78
2021/09/29 14:32:08;;;;;;;4.70;0.80;;;13.50;99.90;;;;;;5005655;28;39496;-78
2021/09/29 14:34:34;;;;;;;3.95;0.70;;;13.70;99.90;;;;;;5006206;28;40347;-78
2021/09/29 14:37:02;;;;;;;7.10;0.88;;;13.90;99.90;;;;;;4987608;28;39383;-79
2021/09/29 14:39:28;;;;;;;5.45;0.80;;;14.00;99.90;;;;;;4988557;28;37927;-78
2021/09/29 14:41:54;;;;;;;3.58;0.75;;;14.30;99.90;;;;;;4985438;28;39003;-78
2021/09/29 14:44:20;;;;;;;2.58;0.50;;;14.40;99.90;;;;;;4980443;28;38790;-79
2021/09/29 14:46:46;;;;;;;2.83;0.73;;;14.60;99.90;;;;;;4986062;28;38677;-78
2021/09/29 14:49:12;;;;;;;1.88;0.70;;;14.90;99.90;;;;;;4986946;28;37148;-79
2021/09/29 14:51:39;;;;;;;5.38;0.85;;;14.90;99.90;;;;;;5002428;28;39310;-78
2021/09/29 14:54:06;;;;;;;3.92;1.02;;;15.10;99.90;;;;;;4994039;28;38337;-78
2021/09/29 14:56:32;;;;;;;2.95;0.70;;;15.10;99.90;;;;;;4975583;28;38178;-78
2021/09/29 14:58:58;;;;;;;3.13;0.80;;;15.00;99.90;;;;;;4983980;28;36088;-78
2021/09/29 15:01:24;;;;;;;5.68;0.63;;;15.00;99.90;;;;;;4982826;28;40596;-78
2021/09/29 15:03:52;;;;;;;4.50;1.45;;;14.70;99.90;;;;;;4981490;28;39071;-79
2021/09/29 15:06:18;;;;;;;2.80;0.50;;;14.50;99.90;;;;;;4984790;28;37582;-79
2021/09/29 15:08:44;;;;;;;6.50;1.27;;;14.10;99.90;;;;;;4999866;28;37529;-79
2021/09/29 15:11:12;;;;;;;4.07;0.80;;;13.90;99.90;;;;;;4983483;28;39836;-78
2021/09/29 15:14:26;;;;;;;6.35;0.90;;;13.40;99.90;;;;;;4998828;28;37412;-77
2021/09/29 15:16:57;;;;;;;6.28;0.95;;;13.10;99.90;;;;;;4974417;28;38477;-78
2021/09/29 15:21:56;;;;;;;4.53;0.65;;;12.90;99.90;;;;;;4978027;28;42273;-80
2021/09/29 15:24:31;;;;;;;4.72;0.70;;;12.90;99.90;;;;;;4980043;28;38001;-80
2021/09/29 15:52:02;;;;;;;4.20;0.50;;;13.30;99.90;;;;;;4979627;28;37225;-77
2021/09/29 16:02:06;;;;;;;5.03;0.77;;;14.00;99.90;;;;;;4975563;28;38350;-77
2021/09/29 16:04:39;;;;;;;2.95;0.60;;;14.30;99.90;;;;;;4977046;28;37491;-78
2021/09/29 16:21:06;;;;;;;6.47;0.77;;;14.10;99.90;;;;;;4978861;28;38251;-78
2021/09/29 16:31:28;;;;;;;3.45;0.70;;;13.90;99.90;;;;;;4977795;28;39726;-78
2021/09/29 16:33:56;;;;;;;10.85;0.90;;;13.90;99.90;;;;;;4978453;28;38439;-77
2021/09/29 16:36:23;;;;;;;4.05;0.80;;;14.00;99.90;;;;;;4983200;28;38938;-77
2021/09/29 16:38:50;;;;;;;5.57;0.80;;;13.90;99.90;;;;;;4995551;28;39807;-77
2021/09/29 16:41:18;;;;;;;5.78;0.80;;;13.90;99.90;;;;;;4985676;28;37474;-77
2021/09/29 16:43:46;;;;;;;5.88;0.80;;;13.90;99.90;;;;;;4980046;28;35941;-77
2021/09/29 16:46:16;;;;;;;5.13;0.85;;;14.00;99.90;;;;;;4983174;28;37836;-77
2021/09/29 16:48:43;;;;;;;4.10;0.57;;;14.10;99.90;;;;;;4980514;28;37871;-77
2021/09/29 16:53:42;;;;;;;4.63;0.90;;;14.20;99.90;;;;;;4983822;28;37631;-77
2021/09/29 16:56:10;;;;;;;3.88;0.90;;;14.10;99.90;;;;;;4984034;28;39496;-77
2021/09/29 17:01:10;;;;;;;6.88;0.98;;;13.80;99.90;;;;;;4983749;28;38547;-78
2021/09/29 17:03:37;;;;;;;5.90;1.10;;;13.70;99.90;;;;;;4985420;28;37000;-78
2021/09/29 17:06:05;;;;;;;5.25;1.02;;;13.70;99.90;;;;;;4983358;28;37374;-78
2021/09/29 17:08:31;;;;;;;8.25;1.30;;;13.70;99.90;;;;;;4976643;28;38562;-78
2021/09/29 17:10:58;;;;;;;5.57;1.08;;;13.70;99.90;;;;;;4981112;28;39349;-78
2021/09/29 17:13:27;;;;;;;3.38;0.63;;;13.70;99.90;;;;;;4977971;28;37650;-78